createdAt,value
2022-10-18T00:00:06.331Z,8.70
2022-10-18T00:03:11.265Z,8.68
2022-10-18T00:06:13.646Z,8.68
2022-10-18T00:09:16.162Z,8.66
2022-10-18T00:12:18.357Z,8.61
2022-10-18T00:15:21.002Z,8.61
2022-10-18T00:18:23.656Z,8.58
2022-10-18T00:21:26.944Z,8.55
2022-10-18T00:24:29.197Z,8.53
2022-10-18T00:27:32.044Z,8.47
2022-10-18T00:30:35.585Z,8.44
2022-10-18T00:33:38.455Z,8.43
2022-10-18T00:36:41.210Z,8.41
2022-10-18T00:39:44.534Z,8.42
2022-10-18T00:42:46.879Z,8.38
2022-10-18T00:45:49.364Z,8.33
2022-10-18T00:48:52.614Z,8.31
2022-10-18T00:51:59.680Z,8.26
2022-10-18T00:55:02.385Z,8.23
2022-10-18T00:58:05.715Z,8.22
2022-10-18T01:01:08.171Z,8.21
2022-10-18T01:04:11.318Z,8.18
2022-10-18T01:07:26.804Z,8.16
2022-10-18T01:10:44.668Z,8.15
2022-10-18T01:14:12.339Z,8.13
2022-10-18T01:17:25.093Z,8.12
2022-10-18T01:20:46.231Z,8.13
2022-10-18T01:23:48.707Z,8.09
2022-10-18T01:27:09.754Z,8.05
2022-10-18T01:30:21.399Z,8.03
2022-10-18T01:33:29.748Z,8.02
2022-10-18T01:36:33.247Z,8.01
2022-10-18T01:39:37.385Z,8.02
2022-10-18T01:42:40.104Z,7.99
2022-10-18T01:45:42.527Z,7.96
2022-10-18T01:48:45.150Z,7.97
2022-10-18T01:51:47.564Z,7.98
2022-10-18T01:54:50.404Z,7.97
2022-10-18T01:58:11.387Z,7.94
2022-10-18T02:01:32.433Z,7.91
2022-10-18T02:04:47.076Z,7.90
2022-10-18T02:08:23.905Z,7.90
2022-10-18T02:11:28.597Z,7.92
2022-10-18T02:14:32.195Z,7.90
2022-10-18T02:17:34.872Z,7.86
2022-10-18T02:20:38.336Z,7.85
2022-10-18T02:23:40.934Z,7.85
2022-10-18T02:26:43.487Z,7.84
2022-10-18T02:29:46.180Z,7.82
2022-10-18T02:33:01.219Z,7.82
2022-10-18T02:36:06.409Z,7.81
2022-10-18T02:39:14.741Z,7.75
2022-10-18T02:42:17.333Z,7.74
2022-10-18T02:45:19.779Z,7.71
2022-10-18T02:48:22.323Z,7.75
2022-10-18T02:51:25.240Z,7.73
2022-10-18T02:54:27.726Z,7.69
2022-10-18T02:57:30.918Z,7.64
2022-10-18T03:00:34.025Z,7.58
2022-10-18T03:03:36.258Z,7.54
2022-10-18T03:06:38.751Z,7.54
2022-10-18T03:09:40.956Z,7.53
2022-10-18T03:12:43.413Z,7.51
2022-10-18T03:15:46.343Z,7.49
2022-10-18T03:18:48.918Z,7.50
2022-10-18T03:21:51.275Z,7.48
2022-10-18T03:24:54.061Z,7.45
2022-10-18T03:27:56.363Z,7.45
2022-10-18T03:31:02.734Z,7.43
2022-10-18T03:34:04.938Z,7.44
2022-10-18T03:37:07.582Z,7.47
2022-10-18T03:40:09.957Z,7.56
2022-10-18T03:43:13.530Z,7.58
2022-10-18T03:46:15.771Z,7.56
2022-10-18T03:49:18.255Z,7.49
2022-10-18T03:52:20.498Z,7.46
2022-10-18T03:55:23.100Z,7.43
2022-10-18T03:58:25.507Z,7.36
2022-10-18T04:01:28.215Z,7.31
2022-10-18T04:04:30.862Z,7.26
2022-10-18T04:07:33.676Z,7.24
2022-10-18T04:10:38.659Z,7.20
2022-10-18T04:13:40.931Z,7.17
2022-10-18T04:16:43.426Z,7.13
2022-10-18T04:19:45.747Z,7.10
2022-10-18T04:22:48.503Z,7.06
2022-10-18T04:25:50.863Z,7.03
2022-10-18T04:28:53.799Z,7.03
2022-10-18T04:31:56.229Z,7.08
2022-10-18T04:35:01.857Z,7.09
2022-10-18T04:38:04.112Z,7.11
2022-10-18T04:41:06.723Z,7.14
2022-10-18T04:44:08.978Z,7.15
2022-10-18T04:47:11.554Z,7.18
2022-10-18T04:50:18.534Z,7.18
2022-10-18T04:53:21.011Z,7.11
2022-10-18T04:56:23.226Z,7.06
2022-10-18T04:59:25.766Z,7.05
2022-10-18T05:02:28.288Z,7.03
2022-10-18T05:05:49.619Z,7.06
2022-10-18T05:08:52.987Z,7.05
2022-10-18T05:11:55.534Z,7.06
2022-10-18T05:14:58.729Z,7.05
2022-10-18T05:18:01.323Z,7.07
2022-10-18T05:21:03.607Z,7.04
2022-10-18T05:24:06.233Z,7.04
2022-10-18T05:27:10.240Z,7.06
2022-10-18T05:30:13.362Z,7.10
2022-10-18T05:33:15.565Z,7.09
2022-10-18T05:36:18.239Z,7.11
2022-10-18T05:39:20.607Z,7.10
2022-10-18T05:42:23.151Z,7.13
2022-10-18T05:45:25.394Z,7.17
2022-10-18T05:48:28.159Z,7.18
2022-10-18T05:51:30.369Z,7.19
2022-10-18T05:54:32.976Z,7.22
2022-10-18T05:57:35.364Z,7.30
2022-10-18T06:00:38.664Z,7.39
2022-10-18T06:03:41.320Z,7.51
2022-10-18T06:06:43.751Z,7.62
2022-10-18T06:09:46.210Z,7.74
2022-10-18T06:12:48.535Z,7.89
2022-10-18T06:15:51.157Z,7.98
2022-10-18T06:18:54.554Z,8.09
2022-10-18T06:21:57.219Z,8.24
2022-10-18T06:24:59.450Z,8.42
2022-10-18T06:28:03.729Z,8.60
2022-10-18T06:31:06.260Z,8.85
2022-10-18T06:34:08.786Z,8.98
2022-10-18T06:37:11.160Z,9.15
2022-10-18T06:40:14.006Z,9.37
2022-10-18T06:43:21.120Z,9.49
2022-10-18T06:46:24.299Z,9.69
2022-10-18T06:49:26.601Z,10.01
2022-10-18T06:52:29.560Z,10.12
2022-10-18T06:55:31.881Z,10.25
2022-10-18T06:58:35.463Z,10.36
2022-10-18T07:01:37.871Z,10.53
2022-10-18T07:04:40.439Z,10.68
2022-10-18T07:07:42.753Z,10.98
2022-10-18T07:10:53.426Z,11.05
2022-10-18T07:14:02.287Z,11.21
2022-10-18T07:17:04.778Z,11.34
2022-10-18T07:20:07.284Z,11.66
2022-10-18T07:23:11.680Z,11.70
2022-10-18T07:26:24.402Z,11.85
2022-10-18T07:29:27.354Z,12.04
2022-10-18T07:32:29.626Z,12.06
2022-10-18T07:35:32.290Z,12.27
2022-10-18T07:38:34.961Z,12.54
2022-10-18T07:41:37.529Z,12.68
2022-10-18T07:44:40.061Z,12.78
2022-10-18T07:47:42.600Z,12.91
2022-10-18T07:50:45.010Z,12.99
2022-10-18T07:53:48.137Z,13.13
2022-10-18T07:56:50.617Z,13.39
2022-10-18T07:59:56.873Z,13.48
2022-10-18T08:02:59.602Z,13.52
2022-10-18T08:06:02.788Z,13.56
2022-10-18T08:09:05.441Z,13.73
2022-10-18T08:12:07.917Z,13.78
2022-10-18T08:15:10.311Z,14.01
2022-10-18T08:18:12.905Z,14.15
2022-10-18T08:21:16.036Z,14.36
2022-10-18T08:24:18.590Z,14.48
2022-10-18T08:27:20.841Z,14.52
2022-10-18T08:30:23.673Z,14.72
2022-10-18T08:33:25.935Z,14.87
2022-10-18T08:36:28.429Z,14.99
2022-10-18T08:39:30.709Z,15.27
2022-10-18T08:42:42.246Z,15.33
2022-10-18T08:45:44.687Z,15.50
2022-10-18T08:48:51.867Z,15.51
2022-10-18T08:51:55.154Z,15.67
2022-10-18T08:55:21.097Z,15.82
2022-10-18T08:58:24.768Z,15.97
2022-10-18T09:04:50.964Z,16.08
2022-10-18T09:08:11.902Z,16.28
2022-10-18T09:11:21.701Z,16.38
2022-10-18T09:14:27.205Z,16.52
2022-10-18T09:17:35.469Z,16.64
2022-10-18T09:20:44.272Z,16.80
2022-10-18T09:23:47.989Z,16.93
2022-10-18T09:26:54.194Z,17.01
2022-10-18T09:30:07.388Z,17.10
2022-10-18T09:33:09.982Z,17.30
2022-10-18T09:36:27.639Z,17.29
2022-10-18T09:39:32.965Z,17.39
2022-10-18T09:42:38.101Z,17.45
2022-10-18T09:45:42.979Z,17.43
2022-10-18T09:48:51.421Z,17.60
2022-10-18T09:51:54.083Z,17.73
2022-10-18T09:55:00.612Z,17.78
2022-10-18T09:58:05.305Z,17.74
2022-10-18T10:01:08.867Z,17.83
2022-10-18T10:04:11.623Z,17.98
2022-10-18T10:07:37.099Z,18.11
2022-10-18T10:10:45.768Z,18.09
2022-10-18T10:13:48.432Z,18.18
2022-10-18T10:16:58.503Z,18.21
2022-10-18T10:20:03.946Z,18.36
2022-10-18T10:23:08.025Z,18.37
2022-10-18T10:26:22.858Z,18.44
2022-10-18T10:29:45.060Z,18.52
2022-10-18T10:32:48.334Z,18.64
2022-10-18T10:35:57.896Z,18.74
2022-10-18T10:39:16.184Z,18.86
2022-10-18T10:42:18.692Z,18.89
2022-10-18T10:45:22.106Z,18.77
2022-10-18T10:48:28.821Z,18.92
2022-10-18T10:51:39.413Z,19.01
2022-10-18T10:54:46.492Z,19.10
2022-10-18T10:57:52.894Z,19.19
2022-10-18T11:00:56.577Z,19.10
2022-10-18T11:04:00.643Z,19.12
2022-10-18T11:07:13.723Z,19.13
2022-10-18T11:10:19.363Z,19.29
2022-10-18T11:13:23.614Z,19.25
2022-10-18T11:16:51.482Z,19.34
2022-10-18T11:20:12.206Z,19.39
2022-10-18T11:23:15.970Z,19.35
2022-10-18T11:26:40.935Z,19.40
2022-10-18T11:29:50.958Z,19.49
2022-10-18T11:32:59.440Z,19.61
2022-10-18T11:36:15.700Z,19.52
2022-10-18T11:39:33.640Z,19.66
2022-10-18T11:42:40.084Z,19.57
2022-10-18T11:46:01.843Z,19.72
2022-10-18T11:49:27.554Z,19.70
2022-10-18T11:52:39.504Z,19.77
2022-10-18T11:55:51.287Z,19.82
2022-10-18T11:59:12.478Z,19.70
2022-10-18T12:02:34.076Z,19.77
2022-10-18T12:05:38.055Z,19.81
2022-10-18T12:08:44.146Z,19.86
2022-10-18T12:11:55.473Z,19.90
2022-10-18T12:15:27.742Z,20.00
2022-10-18T12:18:31.745Z,20.02
2022-10-18T12:21:34.377Z,20.06
2022-10-18T12:24:37.450Z,20.07
2022-10-18T12:27:53.242Z,20.01
2022-10-18T12:31:20.385Z,20.17
2022-10-18T12:34:22.529Z,20.19
2022-10-18T12:37:43.607Z,20.17
2022-10-18T12:40:48.505Z,20.20
2022-10-18T12:43:57.783Z,20.29
2022-10-18T12:47:04.617Z,20.23
2022-10-18T12:50:26.335Z,20.20
2022-10-18T12:53:29.437Z,20.17
2022-10-18T12:56:34.618Z,20.11
2022-10-18T12:59:36.782Z,20.14
2022-10-18T13:02:39.346Z,20.07
2022-10-18T13:05:56.310Z,20.04
2022-10-18T13:09:19.534Z,20.08
2022-10-18T13:12:21.732Z,20.25
2022-10-18T13:15:41.644Z,20.13
2022-10-18T13:18:55.469Z,20.07
2022-10-18T13:22:13.185Z,20.10
2022-10-18T13:25:18.516Z,20.14
2022-10-18T13:28:25.279Z,20.25
2022-10-18T13:31:27.563Z,20.18
2022-10-18T13:34:35.360Z,20.17
2022-10-18T13:37:37.645Z,20.23
2022-10-18T13:40:41.734Z,20.13
2022-10-18T13:43:51.555Z,20.01
2022-10-18T13:46:54.869Z,19.95
2022-10-18T13:50:10.848Z,20.06
2022-10-18T13:53:31.722Z,20.10
2022-10-18T13:56:51.347Z,20.06
2022-10-18T14:00:21.620Z,20.03
2022-10-18T14:07:02.370Z,19.86
2022-10-18T14:10:09.634Z,19.75
2022-10-18T14:13:23.247Z,19.70
2022-10-18T14:16:44.779Z,19.53
2022-10-18T14:20:02.480Z,19.50
2022-10-18T14:23:19.749Z,19.45
2022-10-18T14:26:22.848Z,19.34
2022-10-18T14:29:25.386Z,19.26
2022-10-18T14:32:29.346Z,19.10
2022-10-18T14:35:33.735Z,18.97
2022-10-18T14:38:37.072Z,18.85
2022-10-18T14:41:47.787Z,18.75
2022-10-18T14:44:54.357Z,18.69
2022-10-18T14:48:21.342Z,18.76
2022-10-18T14:51:30.878Z,18.74
2022-10-18T14:54:38.299Z,18.73
2022-10-18T14:57:40.572Z,18.50
2022-10-18T15:00:46.313Z,18.16
2022-10-18T15:03:50.741Z,17.91
2022-10-18T15:06:54.239Z,17.82
2022-10-18T15:09:58.039Z,17.81
2022-10-18T15:13:09.629Z,17.61
2022-10-18T15:16:16.516Z,17.35
2022-10-18T15:19:22.121Z,17.06
2022-10-18T15:22:33.381Z,16.80
2022-10-18T15:25:36.032Z,16.61
2022-10-18T15:28:51.269Z,16.40
2022-10-18T15:31:54.695Z,16.23
2022-10-18T15:35:08.292Z,16.05
2022-10-18T15:38:32.476Z,15.90
2022-10-18T15:41:39.546Z,15.72
2022-10-18T15:44:49.363Z,15.57
2022-10-18T15:48:07.004Z,15.40
2022-10-18T15:51:32.543Z,15.26
2022-10-18T15:54:34.995Z,15.08
2022-10-18T15:57:37.849Z,14.94
2022-10-18T16:00:42.498Z,14.84
2022-10-18T16:03:46.542Z,14.79
2022-10-18T16:06:48.991Z,14.63
2022-10-18T16:09:51.500Z,14.53
2022-10-18T16:16:01.208Z,14.28
2022-10-18T16:19:03.467Z,14.18
2022-10-18T16:22:07.107Z,14.10
2022-10-18T16:25:09.357Z,14.02
2022-10-18T16:28:13.238Z,13.91
2022-10-18T16:31:23.088Z,13.84
2022-10-18T16:34:28.922Z,13.76
2022-10-18T16:37:31.128Z,13.62
2022-10-18T16:40:37.637Z,13.55
2022-10-18T16:43:43.672Z,13.61
2022-10-18T16:46:46.303Z,13.47
2022-10-18T16:49:49.201Z,13.31
2022-10-18T16:52:51.667Z,13.18
2022-10-18T16:55:55.820Z,13.10
2022-10-18T16:58:59.135Z,13.03
2022-10-18T17:02:05.665Z,12.93
2022-10-18T17:05:08.386Z,12.88
2022-10-18T17:08:18.116Z,12.80
2022-10-18T17:11:23.052Z,12.73
2022-10-18T17:14:25.352Z,12.65
2022-10-18T17:17:27.888Z,12.59
2022-10-18T17:20:30.669Z,12.56
2022-10-18T17:23:34.170Z,12.53
2022-10-18T17:26:36.483Z,12.46
2022-10-18T17:29:40.932Z,12.40
2022-10-18T17:32:44.662Z,12.30
2022-10-18T17:35:47.759Z,12.22
2022-10-18T17:38:51.608Z,12.15
2022-10-18T17:41:55.474Z,12.13
2022-10-18T17:44:57.899Z,12.07
2022-10-18T17:48:00.668Z,12.03
2022-10-18T17:51:08.544Z,12.01
2022-10-18T17:54:11.777Z,11.95
2022-10-18T17:57:14.140Z,11.88
2022-10-18T18:00:17.916Z,11.84
2022-10-18T18:03:20.988Z,11.73
2022-10-18T18:06:31.159Z,11.83
2022-10-18T18:09:33.692Z,11.80
2022-10-18T18:12:36.195Z,11.64
2022-10-18T18:15:38.835Z,11.55
2022-10-18T18:18:41.246Z,11.53
2022-10-18T18:21:43.852Z,11.49
2022-10-18T18:24:46.132Z,11.44
2022-10-18T18:27:48.666Z,11.45
2022-10-18T18:30:52.540Z,11.40
2022-10-18T18:33:55.977Z,11.31
2022-10-18T18:36:58.299Z,11.23
2022-10-18T18:40:00.841Z,11.17
2022-10-18T18:43:12.464Z,11.15
2022-10-18T18:46:22.434Z,11.13
2022-10-18T18:49:27.409Z,11.06
2022-10-18T18:52:30.096Z,10.99
2022-10-18T18:55:32.627Z,10.93
2022-10-18T18:58:35.994Z,10.93
2022-10-18T19:01:38.432Z,10.87
2022-10-18T19:04:41.409Z,10.81
2022-10-18T19:07:43.832Z,10.78
2022-10-18T19:10:49.350Z,10.71
2022-10-18T19:13:51.739Z,10.70
2022-10-18T19:16:58.833Z,10.61
2022-10-18T19:20:01.197Z,10.59
2022-10-18T19:23:03.891Z,10.58
2022-10-18T19:26:12.906Z,10.48
2022-10-18T19:29:23.249Z,10.50
2022-10-18T19:32:25.723Z,10.43
2022-10-18T19:35:28.329Z,10.35
2022-10-18T19:38:30.763Z,10.34
2022-10-18T19:41:33.758Z,10.27
2022-10-18T19:44:36.788Z,10.24
2022-10-18T19:47:41.210Z,10.17
2022-10-18T19:50:43.683Z,10.17
2022-10-18T19:53:46.368Z,10.17
2022-10-18T19:56:48.540Z,10.09
2022-10-18T19:59:51.043Z,10.10
2022-10-18T20:02:53.383Z,10.06
2022-10-18T20:05:56.947Z,10.05
2022-10-18T20:08:59.623Z,10.02
2022-10-18T20:12:02.412Z,9.95
2022-10-18T20:15:05.566Z,9.88
2022-10-18T20:18:08.243Z,9.85
2022-10-18T20:21:12.593Z,9.81
2022-10-18T20:24:15.069Z,9.77
2022-10-18T20:27:17.328Z,9.73
2022-10-18T20:30:27.419Z,9.68
2022-10-18T20:33:29.793Z,9.63
2022-10-18T20:36:32.978Z,9.59
2022-10-18T20:39:35.338Z,9.59
2022-10-18T20:42:38.003Z,9.56
2022-10-18T20:45:40.193Z,9.55
2022-10-18T20:48:42.752Z,9.51
2022-10-18T20:51:45.355Z,9.54
2022-10-18T20:54:47.837Z,9.51
2022-10-18T20:57:50.051Z,9.47
2022-10-18T21:00:53.207Z,9.40
2022-10-18T21:03:56.852Z,9.34
2022-10-18T21:07:01.119Z,9.29
2022-10-18T21:10:03.535Z,9.27
2022-10-18T21:13:06.096Z,9.24
2022-10-18T21:16:08.717Z,9.26
2022-10-18T21:19:20.456Z,9.21
2022-10-18T21:22:22.795Z,9.20
2022-10-18T21:25:25.251Z,9.18
2022-10-18T21:28:27.591Z,9.30
2022-10-18T21:31:31.186Z,9.26
2022-10-18T21:34:33.506Z,9.22
2022-10-18T21:37:35.976Z,9.17
2022-10-18T21:40:44.443Z,9.18
2022-10-18T21:43:48.012Z,9.14
2022-10-18T21:46:50.753Z,9.10
2022-10-18T21:49:53.506Z,9.05
2022-10-18T21:52:55.742Z,9.01
2022-10-18T21:56:04.369Z,9.00
2022-10-18T21:59:06.848Z,9.02
2022-10-18T22:02:09.350Z,9.08
2022-10-18T22:05:12.351Z,9.14
2022-10-18T22:08:14.645Z,9.28
2022-10-18T22:11:18.291Z,9.37
2022-10-18T22:14:20.825Z,9.42
2022-10-18T22:17:23.854Z,9.46
2022-10-18T22:20:29.282Z,9.46
2022-10-18T22:23:33.016Z,9.51
2022-10-18T22:26:40.500Z,9.54
2022-10-18T22:29:43.073Z,9.59
2022-10-18T22:32:45.304Z,9.69
2022-10-18T22:35:51.116Z,9.72
2022-10-18T22:38:53.826Z,9.77
2022-10-18T22:41:57.320Z,9.90
2022-10-18T22:44:59.583Z,9.89
2022-10-18T22:48:02.080Z,9.88
2022-10-18T22:51:04.988Z,9.89
2022-10-18T22:54:07.543Z,9.90
2022-10-18T22:57:09.712Z,10.06
2022-10-18T23:00:12.829Z,10.08
2022-10-18T23:03:15.931Z,10.10
2022-10-18T23:06:22.178Z,10.20
2022-10-18T23:09:24.425Z,10.18
2022-10-18T23:12:26.926Z,10.27
2022-10-18T23:15:29.814Z,10.29
2022-10-18T23:18:33.002Z,10.32
2022-10-18T23:21:35.342Z,10.38
2022-10-18T23:24:37.837Z,10.31
2022-10-18T23:27:40.111Z,10.28
2022-10-18T23:30:44.309Z,10.24
2022-10-18T23:33:50.975Z,10.19
2022-10-18T23:36:53.472Z,10.17
2022-10-18T23:39:55.703Z,10.14
2022-10-18T23:42:58.229Z,10.04
2022-10-18T23:46:00.818Z,10.00
2022-10-18T23:49:03.431Z,9.88
2022-10-18T23:52:05.622Z,9.77
2022-10-18T23:55:08.212Z,9.71
2022-10-18T23:58:10.472Z,9.62
